Wetter

Link zur aktuellen Windanzeige


Nordholz:

METAR:

2021/10/16 20:20 ETMN 162020Z 22008KT 9999 BKN057 10/07 Q1018 BLU

TAF:

2021/10/15 11:38 TAF ETMN 151333Z 1511/1520 CNL 1420

Wind EDXN:

16.10. 20:00z 220/11G15kt
16.10. 20:10z 210/09G17kt
16.10. 20:20z 200/10G16kt
16.10. 20:30z 210/11G15kt
16.10. 20:40z 210/12G15kt
16.10. 20:50z 210/12kt
16.10. 21:00z 210/11G18kt
16.10. 21:10z 210/12G17kt
16.10. 21:20z 210/11G15kt
16.10. 21:30z 210/14kt

Bremen:

METAR:

2021/10/16 21:20 EDDW 162120Z 21007KT CAVOK 09/04 Q1020

TAF:

2021/10/16 18:27 TAF EDDW 161700Z 1618/1718 22006KT 9999 FEW030 BKN045

Hamburg:

METAR:

2021/10/16 21:20 EDDH 162120Z 22007KT CAVOK 09/05 Q1019 NOSIG

TAF:

2021/10/16 18:27 TAF EDDH 161700Z 1618/1724 24007KT 9999 FEW030 SCT045 PROB30 TEMPO 1704/1707 FEW006 BKN011 TEMPO 1710/1714 BKN012 PROB30 TEMPO 1710/1714 4000 -RADZ BKN009

Hannover:

METAR:

2021/10/16 21:20 EDDV 162120Z 18005KT CAVOK 07/04 Q1020

TAF:

2021/10/16 18:27 TAF EDDV 161700Z 1618/1718 23004KT 9999 SCT030 TEMPO 1708/1713 23009KT

Wikipedia Artikel: METARTAF

Daten von Aviation Weather Center der NOAA, es kann keine Garantie für Aktualität und Richtigkeit der Daten übernommen werden.

Die Nutzung dieser Daten zur Flugplanung ist nicht zulässig!

Inoffizielle ATIS 🙂